Time;durP1;ratioP1;P1;durP2;ratioP2;P2;SDS_P1;SDS_P2;PMS_P1;PMS_P2;Temp;Humidity;BMP_temperature;BMP_pressure;BME280_temperature;BME280_humidity;BME280_pressure;Samples;Min_cycle;Max_cycle;Signal;HPM_P1;HPM_P2
2022/06/01 00:01:45;;;;;;;7.60;7.30;;;;;;;21.40;71.22;101026.44;5016025;28;20083;-58
2022/06/01 00:04:11;;;;;;;7.68;7.38;;;;;;;21.40;71.30;101027.28;5015914;28;20424;-58
2022/06/01 00:06:36;;;;;;;7.53;7.22;;;;;;;21.42;70.36;101021.63;5016062;28;20479;-58
2022/06/01 00:09:02;;;;;;;7.65;7.32;;;;;;;21.44;71.69;101025.84;5018093;28;20405;-59
2022/06/01 00:11:28;;;;;;;7.40;7.10;;;;;;;21.46;71.13;101029.25;5021419;28;20030;-58
2022/06/01 00:13:53;;;;;;;7.50;7.20;;;;;;;21.47;71.27;101016.41;5015504;28;20057;-59
2022/06/01 00:16:19;;;;;;;7.60;7.30;;;;;;;21.47;70.92;101024.63;5015330;28;20058;-58
2022/06/01 00:18:44;;;;;;;7.47;7.18;;;;;;;21.50;71.07;101021.50;5015445;28;20026;-58
2022/06/01 00:21:10;;;;;;;7.40;7.10;;;;;;;21.50;71.00;101019.66;5015515;28;20025;-58
2022/06/01 00:23:36;;;;;;;7.38;7.07;;;;;;;21.53;70.66;101024.75;5015264;28;20026;-58
2022/06/01 00:26:02;;;;;;;7.38;7.07;;;;;;;21.54;70.20;101022.84;5015561;28;20377;-58
2022/06/01 00:28:27;;;;;;;8.05;7.75;;;;;;;21.58;71.13;101027.75;5015121;28;20465;-59
2022/06/01 00:30:52;;;;;;;7.32;7.03;;;;;;;21.57;69.65;101017.00;5015252;28;20045;-59
2022/06/01 00:33:18;;;;;;;7.68;7.38;;;;;;;21.57;70.26;101023.31;5015127;28;20073;-60
2022/06/01 00:35:43;;;;;;;7.57;7.28;;;;;;;21.60;69.97;101030.31;5014935;28;20034;-59
2022/06/01 00:38:08;;;;;;;7.45;7.10;;;;;;;21.59;69.69;101032.19;5015304;28;20033;-58
2022/06/01 00:40:34;;;;;;;7.53;7.07;;;;;;;21.62;68.99;101026.34;5015144;28;20033;-59
2022/06/01 00:43:01;;;;;;;7.40;7.10;;;;;;;21.60;68.87;101027.56;5014698;28;20029;-58
2022/06/01 00:45:29;;;;;;;7.50;7.20;;;;;;;21.60;69.39;101019.34;5013931;28;20026;-59
2022/06/01 00:47:55;;;;;;;7.80;7.50;;;;;;;21.60;69.38;101024.81;5014821;28;20034;-59
2022/06/01 00:50:39;;;;;;;7.50;7.20;;;;;;;21.64;69.37;101028.88;5014698;28;20072;-59
2022/06/01 00:53:15;;;;;;;7.20;6.90;;;;;;;21.62;69.51;101025.47;5014830;28;20109;-59
2022/06/01 00:55:45;;;;;;;7.40;7.10;;;;;;;21.63;68.90;101022.56;5015248;28;20038;-59
2022/06/01 00:58:24;;;;;;;7.40;7.10;;;;;;;21.62;68.76;101025.47;5015077;28;20037;-55
2022/06/01 01:00:52;;;;;;;7.70;7.30;;;;;;;21.63;68.74;101021.72;5025134;28;20488;-60
2022/06/01 01:03:19;;;;;;;7.75;7.45;;;;;;;21.65;68.46;101025.09;5014623;28;20465;-59
2022/06/01 01:05:55;;;;;;;7.60;7.30;;;;;;;21.65;68.90;101025.09;5014572;28;20028;-59
2022/06/01 01:08:20;;;;;;;7.50;7.20;;;;;;;21.65;68.27;101025.09;5014776;28;20105;-59
2022/06/01 01:10:45;;;;;;;7.53;7.20;;;;;;;21.64;68.40;101023.41;5014615;28;20152;-59
2022/06/01 01:13:14;;;;;;;7.90;7.55;;;;;;;21.65;68.48;101025.09;5014451;28;20026;-59
2022/06/01 01:15:55;;;;;;;7.43;7.13;;;;;;;21.65;68.63;101029.72;5014166;28;20026;-59
2022/06/01 01:18:28;;;;;;;7.90;7.60;;;;;;;21.67;69.18;101034.00;5014222;28;20032;-59
2022/06/01 01:21:01;;;;;;;7.80;7.50;;;;;;;21.66;68.39;101031.41;5014578;28;20164;-59
2022/06/01 01:23:48;;;;;;;7.55;7.25;;;;;;;21.65;67.88;101030.56;5013862;28;20049;-58
2022/06/01 01:26:14;;;;;;;7.28;6.97;;;;;;;21.66;68.37;101043.22;5014095;28;20105;-58
2022/06/01 01:28:40;;;;;;;7.70;7.30;;;;;;;21.65;68.02;101038.78;5014467;28;20030;-58
2022/06/01 01:31:17;;;;;;;7.80;7.40;;;;;;;21.65;68.42;101036.03;5013957;28;20032;-58
2022/06/01 01:33:43;;;;;;;7.38;7.07;;;;;;;21.65;68.64;101036.03;5013904;28;20088;-59
2022/06/01 01:36:11;;;;;;;7.60;7.30;;;;;;;21.64;68.35;101039.81;5013949;28;20038;-59
2022/06/01 01:38:47;;;;;;;7.28;6.97;;;;;;;21.65;68.46;101036.03;5013727;28;20030;-59
2022/06/01 01:41:14;;;;;;;7.78;7.47;;;;;;;21.66;68.40;101036.91;5013856;28;20034;-59
2022/06/01 01:43:51;;;;;;;7.80;7.30;;;;;;;21.64;68.56;101034.34;5017344;28;20018;-58
2022/06/01 01:46:16;;;;;;;7.40;7.10;;;;;;;21.68;68.89;101041.16;5013734;28;20032;-58
2022/06/01 01:48:42;;;;;;;7.47;7.18;;;;;;;21.65;68.57;101038.78;5013624;28;20109;-58
2022/06/01 01:51:07;;;;;;;7.53;7.20;;;;;;;21.66;68.49;101042.38;5013741;28;20036;-59
2022/06/01 01:53:33;;;;;;;7.00;6.70;;;;;;;21.65;68.58;101044.25;5013531;28;20053;-59
2022/06/01 01:56:45;;;;;;;7.75;7.35;;;;;;;21.65;68.93;101040.66;5013371;28;20416;-59
2022/06/01 01:59:21;;;;;;;7.20;6.90;;;;;;;21.64;68.82;101045.28;4956207;28;20133;-58
2022/06/01 02:02:01;;;;;;;7.45;7.15;;;;;;;21.66;69.21;101043.22;4972156;28;20053;-58
2022/06/01 02:07:33;;;;;;;7.38;7.07;;;;;;;21.67;69.02;101050.41;4972310;28;20153;-59
2022/06/01 02:12:43;;;;;;;7.38;6.97;;;;;;;21.68;68.28;101045.78;4972033;28;20038;-58
2022/06/01 02:15:22;;;;;;;7.30;7.00;;;;;;;21.68;68.44;101051.25;4971843;28;20394;-59
2022/06/01 02:17:50;;;;;;;7.63;7.32;;;;;;;21.67;68.89;101044.06;4971950;28;20030;-59
2022/06/01 02:20:40;;;;;;;7.38;7.07;;;;;;;21.66;69.10;101054.16;4978098;28;20011;-61
2022/06/01 02:23:07;;;;;;;7.82;7.53;;;;;;;21.66;68.69;101056.91;4976169;28;20129;-58
2022/06/01 02:25:33;;;;;;;7.70;7.40;;;;;;;21.68;68.52;101060.31;4971596;28;20027;-59
2022/06/01 02:27:59;;;;;;;7.80;7.50;;;;;;;21.67;68.89;101049.53;4971701;28;20467;-59
2022/06/01 02:30:32;;;;;;;7.70;7.40;;;;;;;21.65;68.69;101057.94;4971465;28;20105;-59
2022/06/01 02:33:00;;;;;;;7.45;7.15;;;;;;;21.66;69.02;101056.91;4971706;28;20556;-59
2022/06/01 02:35:28;;;;;;;7.30;7.00;;;;;;;21.65;68.74;101057.94;4994220;28;20365;-59
2022/06/01 02:37:56;;;;;;;7.40;7.03;;;;;;;21.63;69.04;101060.84;5012921;28;20065;-59
2022/06/01 02:40:24;;;;;;;7.38;7.07;;;;;;;21.65;68.39;101062.56;5012865;28;20164;-59
2022/06/01 02:42:51;;;;;;;7.15;6.85;;;;;;;21.65;68.66;101062.56;5012919;28;20033;-59
2022/06/01 02:45:20;;;;;;;7.45;7.15;;;;;;;21.64;68.74;101056.25;5012878;28;20021;-59
2022/06/01 02:47:47;;;;;;;7.45;7.15;;;;;;;21.64;69.41;101067.19;5013059;28;20030;-59
2022/06/01 02:50:19;;;;;;;7.60;7.30;;;;;;;21.63;68.65;101068.22;5012659;28;20030;-59
2022/06/01 02:52:45;;;;;;;7.30;7.00;;;;;;;21.63;68.52;101070.97;5013054;28;20128;-59
2022/06/01 02:55:13;;;;;;;7.40;7.10;;;;;;;21.65;68.98;101068.88;5012714;28;20544;-59
2022/06/01 02:57:41;;;;;;;7.80;7.40;;;;;;;21.63;69.03;101065.47;5012492;28;20042;-59
2022/06/01 03:00:17;;;;;;;7.75;7.35;;;;;;;21.63;69.16;101068.22;5013148;28;20096;-58
2022/06/01 03:02:47;;;;;;;7.10;6.80;;;;;;;21.67;69.86;101012.13;5012616;28;20127;-59
2022/06/01 03:05:14;;;;;;;7.47;7.18;;;;;;;21.68;69.91;101019.28;5012968;28;20080;-59
2022/06/01 03:07:40;;;;;;;7.10;6.80;;;;;;;21.68;69.29;101032.97;5015006;28;20097;-59
2022/06/01 03:10:06;;;;;;;7.70;7.40;;;;;;;21.68;70.09;101074.00;5016729;28;20478;-59
2022/06/01 03:12:32;;;;;;;7.70;7.40;;;;;;;21.67;69.90;101060.47;5016770;28;20022;-59
2022/06/01 03:14:57;;;;;;;7.43;7.13;;;;;;;21.67;69.56;101055.88;5015266;28;20022;-59
2022/06/01 03:17:22;;;;;;;7.50;7.20;;;;;;;21.67;69.28;101060.47;5016456;28;20484;-59
2022/06/01 03:19:47;;;;;;;7.00;6.70;;;;;;;21.67;69.61;101066.84;5016506;28;20022;-59
2022/06/01 03:22:13;;;;;;;7.00;6.70;;;;;;;21.66;68.92;101065.09;5016222;28;20073;-59
2022/06/01 03:24:38;;;;;;;7.47;7.18;;;;;;;21.67;69.35;101061.34;5016244;28;20056;-59
2022/06/01 03:27:03;;;;;;;7.55;7.25;;;;;;;21.66;69.19;101064.25;5016468;28;20025;-59
2022/06/01 03:29:29;;;;;;;7.30;7.00;;;;;;;21.67;69.20;101069.56;5016279;28;20057;-59
2022/06/01 03:31:54;;;;;;;7.30;7.00;;;;;;;21.66;69.28;101059.63;5016317;28;20061;-59
2022/06/01 03:34:19;;;;;;;7.40;7.10;;;;;;;21.66;69.04;101076.03;5016092;28;20026;-60
2022/06/01 03:36:46;;;;;;;7.55;7.25;;;;;;;21.68;69.07;101079.47;5016131;28;20100;-59
2022/06/01 03:39:11;;;;;;;7.47;7.18;;;;;;;21.68;68.87;101078.63;5016262;28;20470;-60
2022/06/01 03:41:36;;;;;;;7.28;6.97;;;;;;;21.66;69.19;101081.53;5015960;28;20026;-59
2022/06/01 03:46:46;;;;;;;7.60;7.30;;;;;;;21.69;69.51;101089.38;5016131;28;20101;-60
2022/06/01 03:49:11;;;;;;;7.30;7.00;;;;;;;21.68;69.24;101082.22;5016117;28;20116;-59
2022/06/01 03:51:37;;;;;;;8.05;7.65;;;;;;;21.69;69.27;101086.66;5016054;28;20052;-59
2022/06/01 03:54:03;;;;;;;7.30;7.00;;;;;;;21.69;69.07;101086.66;5016246;28;20056;-60
2022/06/01 03:56:28;;;;;;;7.07;6.78;;;;;;;21.69;69.76;101081.16;5015604;28;20034;-60
2022/06/01 03:58:54;;;;;;;7.30;7.00;;;;;;;21.70;69.81;101077.41;5023298;28;20034;-61
2022/06/01 04:01:19;;;;;;;7.63;7.32;;;;;;;21.69;69.76;101086.66;5019280;28;20424;-60
2022/06/01 04:03:46;;;;;;;0.32;0.20;;;;;;;22.21;68.77;101080.25;5016084;28;20029;-59
2022/06/01 04:06:11;;;;;;;0.45;0.30;;;;;;;22.50;68.30;101074.69;5015701;28;20058;-60
2022/06/01 04:08:37;;;;;;;0.10;0.10;;;;;;;22.74;67.42;101080.84;5014334;28;20053;-60
2022/06/01 04:11:02;;;;;;;0.20;0.20;;;;;;;22.90;67.59;101086.13;5015623;28;20030;-59
2022/06/01 04:13:28;;;;;;;1.08;0.30;;;;;;;23.02;68.17;101079.06;5014150;28;20022;-60
2022/06/01 04:15:54;;;;;;;0.20;0.20;;;;;;;23.18;68.44;101071.59;5015958;28;20038;-59
2022/06/01 04:18:20;;;;;;;0.20;0.20;;;;;;;23.32;68.34;101079.72;5015316;28;20370;-60
2022/06/01 04:20:48;;;;;;;0.10;0.10;;;;;;;23.46;68.92;101080.69;5015726;28;20474;-59
2022/06/01 04:23:14;;;;;;;0.30;0.30;;;;;;;23.60;68.77;101084.44;5015151;28;20401;-60
2022/06/01 04:25:40;;;;;;;0.52;0.20;;;;;;;23.71;69.12;101086.63;5015109;28;20488;-59
2022/06/01 04:28:06;;;;;;;0.55;0.20;;;;;;;23.83;68.78;101081.41;5015189;28;20105;-60
2022/06/01 04:30:32;;;;;;;0.20;0.20;;;;;;;23.88;68.97;101089.91;5015098;28;20230;-60
2022/06/01 04:32:57;;;;;;;0.65;0.20;;;;;;;24.02;69.76;101088.94;5015294;28;20041;-59
2022/06/01 04:35:24;;;;;;;0.50;0.22;;;;;;;;;;5014957;28;20054;-60
2022/06/01 04:37:50;;;;;;;0.10;0.10;;;;;;;23.61;69.32;101095.19;5015008;28;20048;-60
2022/06/01 04:40:17;;;;;;;0.50;0.20;;;;;;;23.16;68.08;101090.13;5014967;28;20109;-60
2022/06/01 04:42:42;;;;;;;0.10;0.10;;;;;;;22.97;67.29;101098.00;5014787;28;20067;-60
2022/06/01 04:45:10;;;;;;;0.00;0.00;;;;;;;22.87;65.07;101102.97;5021682;28;20021;-60
2022/06/01 04:47:36;;;;;;;0.13;0.13;;;;;;;22.79;62.83;101100.28;5014900;28;20089;-60
2022/06/01 04:50:02;;;;;;;0.20;0.17;;;;;;;22.58;60.94;101108.50;5014978;28;20417;-59
2022/06/01 04:52:27;;;;;;;0.17;0.10;;;;;;;22.44;61.51;101110.22;5014676;28;20526;-59
2022/06/01 04:54:52;;;;;;;0.10;0.10;;;;;;;22.40;60.08;101115.25;5014630;28;20029;-59
2022/06/01 04:57:18;;;;;;;0.10;0.10;;;;;;;22.35;59.22;101112.25;5014787;28;20063;-59
2022/06/01 04:59:43;;;;;;;0.10;0.10;;;;;;;22.36;60.90;101119.41;5014588;28;20065;-60
2022/06/01 05:02:08;;;;;;;0.28;0.20;;;;;;;22.24;59.54;101120.09;5014683;28;20381;-59
2022/06/01 05:04:34;;;;;;;0.20;0.20;;;;;;;22.25;60.98;101119.88;5014457;28;20030;-60
2022/06/01 05:07:00;;;;;;;0.75;0.22;;;;;;;22.24;60.18;101115.44;5014533;28;20022;-60
2022/06/01 05:09:26;;;;;;;0.25;0.25;;;;;;;22.17;60.62;101128.19;5014365;28;20380;-60
2022/06/01 05:11:51;;;;;;;0.10;0.10;;;;;;;22.13;59.72;101116.78;5014450;28;20037;-60
2022/06/01 05:14:17;;;;;;;0.20;0.10;;;;;;;22.09;58.89;101128.31;5014410;28;20105;-59
2022/06/01 05:16:42;;;;;;;0.60;0.10;;;;;;;22.10;59.68;101121.78;5014356;28;20054;-59
2022/06/01 05:19:07;;;;;;;0.60;0.22;;;;;;;22.06;59.92;101125.94;5014673;28;20516;-60
2022/06/01 05:21:33;;;;;;;0.25;0.20;;;;;;;22.05;59.01;101130.56;5013955;28;20401;-59
2022/06/01 05:23:58;;;;;;;0.20;0.20;;;;;;;22.06;58.22;101131.41;5014273;28;20044;-60
2022/06/01 05:26:24;;;;;;;0.38;0.20;;;;;;;22.00;59.12;101126.66;5013981;28;20372;-59
2022/06/01 05:28:49;;;;;;;0.40;0.40;;;;;;;21.96;60.05;101131.66;5014194;28;20038;-60
2022/06/01 05:31:14;;;;;;;0.28;0.10;;;;;;;21.90;59.39;101132.41;5013606;28;20053;-60
2022/06/01 05:33:43;;;;;;;0.70;0.10;;;;;;;21.92;60.22;101125.72;5019381;28;20033;-61
2022/06/01 05:36:09;;;;;;;1.92;0.20;;;;;;;21.88;59.04;101138.09;5017212;28;20429;-60
2022/06/01 05:38:35;;;;;;;0.15;0.15;;;;;;;22.20;59.92;101138.78;5013844;28;20041;-59
2022/06/01 05:41:01;;;;;;;0.68;0.17;;;;;;;22.03;59.41;101132.63;5013981;28;20030;-60
2022/06/01 05:43:26;;;;;;;0.20;0.20;;;;;;;22.10;59.48;101132.75;5013652;28;20022;-60
2022/06/01 05:45:51;;;;;;;0.10;0.10;;;;;;;22.10;58.77;101138.22;5013973;28;20022;-59
2022/06/01 05:48:18;;;;;;;1.45;0.30;;;;;;;22.07;59.06;101138.59;5014062;28;20041;-60
2022/06/01 05:50:44;;;;;;;0.25;0.20;;;;;;;22.15;58.70;101143.97;5013758;28;20024;-59
2022/06/01 05:53:10;;;;;;;0.85;0.15;;;;;;;22.14;58.50;101145.84;5013737;28;20021;-59
2022/06/01 05:55:36;;;;;;;0.55;0.10;;;;;;;22.20;59.61;101147.00;5013755;28;20026;-59
2022/06/01 05:58:17;;;;;;;0.30;0.10;;;;;;;22.15;59.00;101146.69;5013723;28;20026;-60
2022/06/01 06:00:44;;;;;;;0.17;0.15;;;;;;;22.08;60.36;101162.19;5014147;28;20025;-60
2022/06/01 06:03:09;;;;;;;0.22;0.20;;;;;;;22.12;58.75;101163.50;5013675;28;20022;-60
2022/06/01 06:08:20;;;;;;;0.20;0.10;;;;;;;22.12;58.77;101152.56;5013363;28;20071;-59
2022/06/01 06:10:45;;;;;;;0.05;0.00;;;;;;;22.11;58.80;101154.44;5013412;28;20030;-59
2022/06/01 06:13:10;;;;;;;0.10;0.10;;;;;;;22.01;59.35;101158.50;5013381;28;20037;-59
2022/06/01 06:15:35;;;;;;;0.30;0.10;;;;;;;22.04;60.49;101158.09;5013218;28;20022;-60
2022/06/01 06:18:01;;;;;;;0.03;0.03;;;;;;;22.10;59.74;101165.59;5013532;28;20034;-59
2022/06/01 06:20:26;;;;;;;0.05;0.05;;;;;;;22.16;59.12;101175.78;5016561;28;20087;-62
2022/06/01 06:22:51;;;;;;;0.68;0.28;;;;;;;22.09;58.83;101169.38;5018987;28;20058;-60
2022/06/01 06:25:17;;;;;;;0.15;0.15;;;;;;;22.10;60.31;101173.81;5028298;28;20030;-60
2022/06/01 06:27:42;;;;;;;0.45;0.20;;;;;;;22.14;59.74;101173.22;5013091;28;20152;-59
2022/06/01 06:30:08;;;;;;;0.22;0.13;;;;;;;22.10;59.08;101165.59;5013057;28;20125;-60
2022/06/01 06:32:33;;;;;;;0.08;0.08;;;;;;;22.11;59.15;101179.09;5013000;28;20026;-60
2022/06/01 06:34:59;;;;;;;0.45;0.10;;;;;;;22.09;59.57;101175.69;5012938;28;20026;-59
2022/06/01 06:37:24;;;;;;;1.35;0.17;;;;;;;22.08;58.30;101175.88;5012759;28;20052;-60
2022/06/01 06:39:49;;;;;;;0.10;0.10;;;;;;;22.06;59.25;101165.13;5012996;28;20040;-60
2022/06/01 06:42:15;;;;;;;0.10;0.10;;;;;;;22.15;59.39;101176.81;5011986;28;20036;-60
2022/06/01 06:44:40;;;;;;;0.10;0.10;;;;;;;22.08;58.48;101176.72;5012881;28;20049;-59
2022/06/01 06:47:05;;;;;;;0.10;0.10;;;;;;;22.13;58.98;101181.63;5013260;28;20020;-59
2022/06/01 06:49:31;;;;;;;0.10;0.10;;;;;;;22.11;59.13;101172.78;5012723;28;20026;-59
2022/06/01 06:51:57;;;;;;;0.20;0.20;;;;;;;22.06;60.94;101175.22;5012860;28;20069;-59
2022/06/01 06:54:23;;;;;;;0.03;0.03;;;;;;;22.14;59.81;101178.72;5012709;28;20029;-60
2022/06/01 06:56:48;;;;;;;1.00;0.10;;;;;;;22.06;60.76;101176.06;5012731;28;20029;-59
2022/06/01 06:59:16;;;;;;;0.10;0.10;;;;;;;22.08;59.87;101178.63;5012677;28;20025;-60
2022/06/01 07:01:42;;;;;;;1.17;0.50;;;;;;;22.13;58.86;101176.16;5012695;28;20044;-60
2022/06/01 07:04:08;;;;;;;0.10;0.10;;;;;;;22.20;60.47;101182.59;5012896;28;20076;-59
2022/06/01 07:06:33;;;;;;;0.25;0.20;;;;;;;22.17;59.85;101182.97;5012592;28;20022;-60
2022/06/01 07:09:00;;;;;;;0.30;0.10;;;;;;;22.10;59.24;101192.97;5012659;28;20488;-59
2022/06/01 07:11:28;;;;;;;0.10;0.10;;;;;;;22.08;60.20;101184.94;5033093;28;20018;-55
2022/06/01 07:13:55;;;;;;;0.10;0.10;;;;;;;22.16;61.22;101186.72;5013312;28;20026;-59
2022/06/01 07:16:30;;;;;;;0.32;0.30;;;;;;;22.13;59.47;101200.81;5012377;28;20022;-60
2022/06/01 07:18:58;;;;;;;0.15;0.10;;;;;;;22.26;60.36;101198.28;5012573;28;20022;-60
2022/06/01 07:21:24;;;;;;;0.25;0.15;;;;;;;22.13;59.23;101198.06;5012211;28;20026;-60
2022/06/01 07:23:50;;;;;;;0.22;0.20;;;;;;;22.21;59.28;101207.06;5012536;28;20444;-60
2022/06/01 07:26:22;;;;;;;0.75;0.20;;;;;;;22.19;59.32;101202.81;5012383;28;20018;-60
2022/06/01 07:28:48;;;;;;;0.30;0.30;;;;;;;22.14;59.75;101205.25;5012507;28;20101;-60
2022/06/01 07:31:14;;;;;;;1.23;0.15;;;;;;;22.20;60.25;101201.78;5012448;28;20058;-60
2022/06/01 07:33:40;;;;;;;0.10;0.10;;;;;;;22.18;60.11;101204.72;5012529;28;20038;-59
2022/06/01 07:36:07;;;;;;;0.35;0.30;;;;;;;22.22;61.12;101207.91;5012402;28;20026;-59
2022/06/01 07:44:08;;;;;;;0.10;0.10;;;;;;;22.15;59.43;101196.84;5012376;28;20420;-59
2022/06/01 07:46:35;;;;;;;0.60;0.10;;;;;;;22.24;59.76;101203.09;5012194;28;20022;-60
2022/06/01 07:49:00;;;;;;;0.45;0.20;;;;;;;22.10;59.78;101203.94;5012429;28;20054;-59
2022/06/01 07:51:25;;;;;;;0.20;0.10;;;;;;;22.11;60.92;101205.63;5012129;28;20409;-60
2022/06/01 07:53:51;;;;;;;0.22;0.22;;;;;;;22.16;60.58;101203.16;5014210;28;20100;-60
2022/06/01 07:56:16;;;;;;;0.20;0.20;;;;;;;22.16;60.54;101208.63;5015811;28;20116;-60
2022/06/01 07:58:41;;;;;;;0.17;0.15;;;;;;;22.24;59.48;101200.34;5015883;28;20057;-59
2022/06/01 08:01:07;;;;;;;0.22;0.10;;;;;;;22.23;60.21;101209.59;5019438;28;20026;-57
2022/06/01 08:03:32;;;;;;;0.20;0.20;;;;;;;22.11;59.05;101197.41;5015854;28;20124;-60
2022/06/01 08:05:57;;;;;;;0.20;0.20;;;;;;;22.11;59.38;101206.47;5015656;28;20076;-60
2022/06/01 08:08:23;;;;;;;0.52;0.30;;;;;;;22.17;60.09;101210.34;5015589;28;20429;-59
2022/06/01 08:10:48;;;;;;;0.20;0.10;;;;;;;22.06;60.60;101208.09;5015643;28;20474;-59
2022/06/01 08:13:15;;;;;;;0.30;0.15;;;;;;;22.09;59.11;101207.72;5015593;28;20051;-60
2022/06/01 08:15:42;;;;;;;0.20;0.10;;;;;;;22.05;60.99;101214.59;5015678;28;20025;-59
2022/06/01 08:18:10;;;;;;;0.77;0.20;;;;;;;22.13;59.19;101209.03;5015464;28;20465;-59
2022/06/01 08:20:36;;;;;;;0.10;0.10;;;;;;;22.08;59.99;101214.22;5015823;28;20370;-60
2022/06/01 08:23:02;;;;;;;0.65;0.20;;;;;;;22.14;59.23;101210.72;5015213;28;20073;-59
2022/06/01 08:25:29;;;;;;;0.28;0.10;;;;;;;22.18;58.99;101212.06;5015181;28;20519;-60
2022/06/01 08:27:54;;;;;;;0.45;0.10;;;;;;;22.11;59.74;101211.94;5015285;28;20025;-59
2022/06/01 08:30:23;;;;;;;0.22;0.10;;;;;;;22.06;59.76;101219.03;5015206;28;20036;-59
2022/06/01 08:32:49;;;;;;;0.35;0.10;;;;;;;22.07;58.72;101216.09;5015278;28;20033;-60
2022/06/01 08:35:19;;;;;;;0.47;0.10;;;;;;;22.10;58.39;101223.94;5015039;28;20023;-60
2022/06/01 08:37:46;;;;;;;0.10;0.10;;;;;;;22.20;59.07;101227.28;5015102;28;20080;-60
2022/06/01 08:40:13;;;;;;;0.20;0.20;;;;;;;22.10;59.88;101231.31;5015276;28;20029;-59
2022/06/01 08:42:48;;;;;;;0.75;0.17;;;;;;;22.17;58.16;101232.25;5014805;28;20056;-59
2022/06/01 08:45:14;;;;;;;0.30;0.10;;;;;;;22.09;60.14;101237.81;5018228;28;20116;-56
2022/06/01 08:47:43;;;;;;;0.10;0.10;;;;;;;22.20;57.90;101237.38;5027958;28;20041;-60
2022/06/01 08:50:31;;;;;;;0.10;0.10;;;;;;;22.19;60.24;101235.69;5014926;28;20026;-59
2022/06/01 08:53:01;;;;;;;0.22;0.10;;;;;;;22.18;59.08;101239.47;5014812;28;20040;-60
2022/06/01 08:55:35;;;;;;;0.00;0.00;;;;;;;22.09;60.13;101237.81;5014662;28;20196;-59
2022/06/01 08:58:13;;;;;;;0.20;0.10;;;;;;;22.13;58.70;101241.88;5015032;28;20030;-59
2022/06/01 09:00:50;;;;;;;1.17;0.22;;;;;;;22.08;59.47;101244.34;5014440;28;20076;-60
2022/06/01 09:03:50;;;;;;;0.40;0.20;;;;;;;22.03;59.81;101235.81;5014683;28;20474;-60
2022/06/01 09:06:26;;;;;;;0.22;0.10;;;;;;;22.08;60.03;101242.44;5013569;28;20065;-59
2022/06/01 09:08:57;;;;;;;0.30;0.20;;;;;;;22.15;60.57;101239.81;5014587;28;20030;-60
2022/06/01 09:11:32;;;;;;;0.10;0.10;;;;;;;22.15;60.40;101245.28;5014356;28;20025;-59
2022/06/01 09:14:20;;;;;;;0.52;0.20;;;;;;;22.09;60.24;101237.81;5014576;28;20033;-59
2022/06/01 09:16:49;;;;;;;0.30;0.30;;;;;;;22.14;61.22;101243.59;5014585;28;20105;-60
2022/06/01 09:19:20;;;;;;;0.10;0.10;;;;;;;22.16;60.37;101246.97;5014386;28;20033;-61
2022/06/01 09:24:58;;;;;;;0.40;0.10;;;;;;;22.13;60.40;101250.09;5014590;28;20377;-60
2022/06/01 09:27:38;;;;;;;0.20;0.10;;;;;;;22.10;61.45;101247.75;5014073;28;20022;-60
2022/06/01 09:30:24;;;;;;;0.60;0.30;;;;;;;22.11;62.29;101255.75;5014517;28;20033;-60
2022/06/01 09:33:23;;;;;;;0.10;0.10;;;;;;;22.14;59.18;101244.44;5017198;28;20006;-61
2022/06/01 09:36:08;;;;;;;0.20;0.20;;;;;;;22.14;60.08;101246.31;4973856;28;20147;-59
2022/06/01 09:38:49;;;;;;;0.10;0.10;;;;;;;22.15;60.93;101250.75;4956301;28;20026;-60
2022/06/01 09:41:23;;;;;;;0.20;0.20;;;;;;;22.09;61.52;101257.00;4972513;28;20027;-60
2022/06/01 09:44:10;;;;;;;0.30;0.15;;;;;;;22.11;61.24;101247.53;4972603;28;20030;-60
2022/06/01 09:46:49;;;;;;;0.10;0.10;;;;;;;22.09;60.86;101251.50;4972493;28;20395;-60
2022/06/01 09:49:24;;;;;;;0.10;0.10;;;;;;;22.09;59.79;101244.16;4972481;28;20549;-60
2022/06/01 09:51:55;;;;;;;0.22;0.10;;;;;;;22.11;60.94;101244.81;4956211;28;20089;-61
2022/06/01 09:54:23;;;;;;;0.40;0.40;;;;;;;22.19;59.84;101252.09;4972132;28;20467;-61
2022/06/01 09:56:49;;;;;;;0.20;0.17;;;;;;;22.24;59.41;101244.16;4972379;28;20499;-60
2022/06/01 10:08:06;;;;;;;0.10;0.10;;;;;;;22.16;60.95;101249.72;4972306;28;20045;-59
2022/06/01 10:10:31;;;;;;;0.15;0.10;;;;;;;22.16;59.42;101241.50;4971896;28;20074;-59
2022/06/01 10:12:59;;;;;;;0.28;0.20;;;;;;;22.18;59.63;101250.41;5006333;28;20080;-60
2022/06/01 10:15:36;;;;;;;0.10;0.10;;;;;;;22.11;59.78;101249.44;5013200;28;20026;-60
2022/06/01 10:18:12;;;;;;;0.20;0.10;;;;;;;22.10;59.99;101254.06;5024234;28;20010;-60
2022/06/01 10:20:50;;;;;;;0.20;0.20;;;;;;;22.06;60.63;101258.22;5013828;28;20057;-60
2022/06/01 10:23:35;;;;;;;0.90;0.10;;;;;;;22.01;60.83;101271.59;5013040;28;20070;-60
2022/06/01 10:26:09;;;;;;;0.10;0.10;;;;;;;22.05;60.07;101266.63;5013296;28;20096;-61
2022/06/01 10:28:40;;;;;;;0.40;0.10;;;;;;;22.10;59.48;101264.16;5013175;28;20030;-60
2022/06/01 10:31:14;;;;;;;0.98;0.10;;;;;;;22.14;58.63;101288.25;5011869;28;20032;-60
2022/06/01 10:33:50;;;;;;;0.10;0.10;;;;;;;22.04;60.25;101293.13;5013003;28;20189;-59
2022/06/01 10:36:23;;;;;;;0.03;0.03;;;;;;;22.08;61.89;101299.94;5013428;28;20438;-59
2022/06/01 10:38:56;;;;;;;0.07;0.07;;;;;;;22.10;61.34;101286.06;5013114;28;20028;-60
2022/06/01 10:49:26;;;;;;;;;;;;;;;;;;;;;
2022/06/01 10:52:15;;;;;;;;;;;;;;;;;;;;;
2022/06/01 10:55:15;;;;;;;0.28;0.08;;;;;;;22.13;58.51;101304.88;4857688;29;20034;-60
2022/06/01 10:58:22;;;;;;;0.10;0.10;;;;;;;22.05;59.23;101302.22;4821060;29;20099;-60
2022/06/01 11:04:34;;;;;;;0.13;0.10;;;;;;;22.12;60.21;101311.38;4821519;29;20073;-60
2022/06/01 11:07:30;;;;;;;0.17;0.10;;;;;;;22.11;60.26;101309.69;4826517;29;20019;-60
2022/06/01 11:10:05;;;;;;;0.10;0.10;;;;;;;22.02;57.65;101310.78;4821163;29;20046;-60
2022/06/01 11:12:47;;;;;;;0.28;0.17;;;;;;;21.98;59.27;101306.66;4821173;29;20371;-60
2022/06/01 11:15:19;;;;;;;0.20;0.20;;;;;;;22.02;58.58;101306.13;4821118;29;20067;-60
2022/06/01 11:17:50;;;;;;;0.20;0.20;;;;;;;22.07;58.15;101313.81;4825017;29;20038;-60
2022/06/01 11:20:40;;;;;;;0.65;0.20;;;;;;;22.03;57.80;101312.47;4839561;29;20093;-60
2022/06/01 11:23:28;;;;;;;0.22;0.22;;;;;;;22.10;57.96;101314.31;4858040;29;20493;-60
2022/06/01 11:26:17;;;;;;;0.15;0.10;;;;;;;21.99;60.07;101316.59;4894815;29;20044;-60
2022/06/01 11:28:48;;;;;;;0.15;0.15;;;;;;;21.99;57.28;101327.53;4896478;29;20112;-61
2022/06/01 11:31:25;;;;;;;0.47;0.20;;;;;;;22.05;58.66;101322.22;4910618;29;20043;-60
2022/06/01 11:33:59;;;;;;;0.20;0.13;;;;;;;22.07;58.91;101319.31;4964636;28;20045;-61
2022/06/01 11:36:30;;;;;;;0.50;0.10;;;;;;;22.00;57.74;101312.81;4975208;28;20105;-60
2022/06/01 11:39:11;;;;;;;0.40;0.38;;;;;;;21.95;60.43;101298.84;5016129;28;20096;-60
2022/06/01 11:41:41;;;;;;;0.20;0.13;;;;;;;21.99;59.37;101295.53;5015928;28;20026;-60
2022/06/01 11:44:14;;;;;;;0.10;0.10;;;;;;;22.03;59.02;101302.38;5016174;28;20029;-60
2022/06/01 11:46:50;;;;;;;0.40;0.40;;;;;;;22.09;57.98;101301.66;5016290;28;20026;-60
2022/06/01 11:49:32;;;;;;;0.10;0.10;;;;;;;22.01;60.10;101293.50;5016070;28;20022;-61
2022/06/01 11:52:15;;;;;;;0.50;0.20;;;;;;;22.05;59.23;101294.84;5017165;28;20037;-56
2022/06/01 11:54:40;;;;;;;0.20;0.20;;;;;;;22.10;58.38;101280.59;5022032;28;20026;-60
2022/06/01 11:57:24;;;;;;;0.35;0.20;;;;;;;22.05;58.76;101283.91;5015830;28;20018;-60
2022/06/01 12:00:11;;;;;;;0.20;0.20;;;;;;;22.00;59.56;101288.16;5016495;28;20026;-60
2022/06/01 12:02:42;;;;;;;0.47;0.10;;;;;;;22.00;59.59;101290.91;5015627;28;20026;-60
2022/06/01 12:05:13;;;;;;;0.20;0.20;;;;;;;22.03;60.61;101285.94;5016234;28;20022;-60
2022/06/01 12:07:46;;;;;;;0.73;0.20;;;;;;;22.01;57.87;101287.16;5015627;28;20030;-60
2022/06/01 12:10:14;;;;;;;0.10;0.10;;;;;;;22.00;61.19;101288.16;5015736;28;20053;-61
2022/06/01 12:12:39;;;;;;;0.25;0.10;;;;;;;22.05;60.06;101288.53;5015507;28;20025;-60
2022/06/01 12:15:26;;;;;;;0.53;0.10;;;;;;;22.03;60.06;101285.94;5015630;28;20117;-61
2022/06/01 12:18:03;;;;;;;0.30;0.10;;;;;;;22.00;58.67;101291.75;5015477;28;20363;-60
2022/06/01 12:20:31;;;;;;;0.40;0.20;;;;;;;22.09;59.80;101281.63;5015439;28;20040;-60
2022/06/01 12:28:51;;;;;;;0.10;0.10;;;;;;;22.10;58.82;101302.50;5015238;28;20081;-60